Time;durP1;ratioP1;P1;durP2;ratioP2;P2;SDS_P1;SDS_P2;PMS_P1;PMS_P2;Temp;Humidity;BMP_temperature;BMP_pressure;BME280_temperature;BME280_humidity;BME280_pressure;Samples;Min_cycle;Max_cycle;Signal;HPM_P1;HPM_P2
2023/12/11 00:02:08;;;;;;;5.43;1.80;;;;;;;;;;5043409;28;20209;-72
2023/12/11 00:04:41;;;;;;;4.23;1.73;;;;;;;;;;5043934;28;20263;-73
2023/12/11 00:07:08;;;;;;;4.10;1.73;;;;;;;;;;5044571;28;20659;-72
2023/12/11 00:09:35;;;;;;;2.93;1.77;;;;;;;;;;5042685;28;20230;-73
2023/12/11 00:12:06;;;;;;;2.37;1.40;;;;;;;;;;5050249;28;20195;-74
2023/12/11 00:14:33;;;;;;;2.93;1.70;;;;;;;;;;5029097;28;20784;-73
2023/12/11 00:17:03;;;;;;;2.03;1.80;;;;;;;;;;5047206;28;20248;-73
2023/12/11 00:19:34;;;;;;;4.43;1.47;;;;;;;;;;5048939;28;20229;-73
2023/12/11 00:22:01;;;;;;;2.03;1.50;;;;;;;;;;5043807;28;20210;-72
2023/12/11 00:24:28;;;;;;;3.20;1.50;;;;;;;;;;5045130;28;20210;-74
2023/12/11 00:26:58;;;;;;;2.47;1.50;;;;;;;;;;5049108;28;20685;-72
2023/12/11 00:29:28;;;;;;;3.73;2.17;;;;;;;;;;5039995;28;20234;-72
2023/12/11 00:31:55;;;;;;;9.53;4.97;;;;;;;;;;5046169;28;20218;-71
2023/12/11 00:34:25;;;;;;;11.80;6.30;;;;;;;;;;5036915;28;20799;-72
2023/12/11 00:36:55;;;;;;;6.83;3.80;;;;;;;;;;5042046;28;20199;-72
2023/12/11 00:39:23;;;;;;;4.43;2.60;;;;;;;;;;5044335;28;20792;-73
2023/12/11 00:41:51;;;;;;;2.50;1.90;;;;;;;;;;5031585;28;20604;-72
2023/12/11 00:44:18;;;;;;;1.43;1.33;;;;;;;;;;5042812;28;20306;-71
2023/12/11 00:46:46;;;;;;;2.83;1.90;;;;;;;;;;5047307;28;20560;-71
2023/12/11 00:49:13;;;;;;;8.03;3.80;;;;;;;;;;5038696;28;20332;-71
2023/12/11 00:51:46;;;;;;;4.93;2.30;;;;;;;;;;5051455;28;20204;-73
2023/12/11 00:54:16;;;;;;;8.20;4.10;;;;;;;;;;5042931;28;20195;-72
2023/12/11 00:56:43;;;;;;;6.23;3.30;;;;;;;;;;5038432;28;20201;-72
2023/12/11 00:59:13;;;;;;;6.90;3.50;;;;;;;;;;5044002;28;20229;-72
2023/12/11 01:01:41;;;;;;;20.50;10.77;;;;;;;;;;5042258;28;20214;-72
2023/12/11 01:04:09;;;;;;;15.67;8.60;;;;;;;;;;5041025;28;20256;-71
2023/12/11 01:06:39;;;;;;;15.37;8.90;;;;;;;;;;5043376;28;20272;-72
2023/12/11 01:09:06;;;;;;;17.03;9.07;;;;;;;;;;5049925;28;20636;-73
2023/12/11 01:11:39;;;;;;;5.97;3.07;;;;;;;;;;5045751;28;20205;-71
2023/12/11 01:14:09;;;;;;;4.27;2.30;;;;;;;;;;5048552;28;20199;-72
2023/12/11 01:16:39;;;;;;;2.67;1.40;;;;;;;;;;5045982;28;20214;-71
2023/12/11 01:19:07;;;;;;;1.27;1.13;;;;;;;;;;5039667;28;20317;-73
2023/12/11 01:21:35;;;;;;;1.00;1.00;;;;;;;;;;5043728;28;20692;-72
2023/12/11 01:24:02;;;;;;;0.90;0.90;;;;;;;;;;5042364;28;20211;-71
2023/12/11 01:26:35;;;;;;;0.90;0.90;;;;;;;;;;5052882;28;20575;-72
2023/12/11 01:29:02;;;;;;;0.70;0.70;;;;;;;;;;5049547;28;20527;-71
2023/12/11 01:31:30;;;;;;;0.70;0.70;;;;;;;;;;5048451;28;20206;-72
2023/12/11 01:33:58;;;;;;;0.97;0.70;;;;;;;;;;5054496;28;20198;-73
2023/12/11 01:36:28;;;;;;;0.60;0.60;;;;;;;;;;5042791;28;20622;-72
2023/12/11 01:38:58;;;;;;;0.70;0.70;;;;;;;;;;5048479;28;20276;-71
2023/12/11 01:41:28;;;;;;;0.60;0.60;;;;;;;;;;5052472;28;20214;-72
2023/12/11 01:43:58;;;;;;;1.50;0.70;;;;;;;;;;5028156;28;20198;-73
2023/12/11 01:46:27;;;;;;;0.70;0.70;;;;;;;;;;5048079;28;20254;-71
2023/12/11 01:48:57;;;;;;;0.50;0.50;;;;;;;;;;5027052;28;20218;-72
2023/12/11 01:51:27;;;;;;;0.70;0.67;;;;;;;;;;5049490;28;20804;-71
2023/12/11 01:53:57;;;;;;;0.73;0.73;;;;;;;;;;5038909;28;20202;-73
2023/12/11 01:56:24;;;;;;;1.00;1.00;;;;;;;;;;5042403;28;20202;-71
2023/12/11 01:58:52;;;;;;;0.60;0.60;;;;;;;;;;5045119;28;20221;-72
2023/12/11 02:01:23;;;;;;;0.73;0.70;;;;;;;;;;5040837;28;20231;-72
2023/12/11 02:03:51;;;;;;;0.60;0.60;;;;;;;;;;5023754;28;21926;-72
2023/12/11 02:06:19;;;;;;;0.57;0.57;;;;;;;;;;5028031;28;20205;-72
2023/12/11 02:08:46;;;;;;;0.53;0.53;;;;;;;;;;5042714;28;20333;-72
2023/12/11 02:11:16;;;;;;;0.63;0.63;;;;;;;;;;5038500;28;20648;-72
2023/12/11 02:13:43;;;;;;;0.60;0.60;;;;;;;;;;5030014;28;20669;-72
2023/12/11 02:16:19;;;;;;;0.60;0.60;;;;;;;;;;5040454;28;20202;-73
2023/12/11 02:18:50;;;;;;;0.60;0.60;;;;;;;;;;5041392;28;20205;-71
2023/12/11 02:21:18;;;;;;;0.57;0.57;;;;;;;;;;5043927;28;20202;-72
2023/12/11 02:23:48;;;;;;;0.50;0.50;;;;;;;;;;5042088;28;20214;-71
2023/12/11 02:26:21;;;;;;;0.50;0.50;;;;;;;;;;5041641;28;20272;-71
2023/12/11 02:28:52;;;;;;;0.60;0.60;;;;;;;;;;5029655;28;20221;-73
2023/12/11 02:31:22;;;;;;;0.60;0.60;;;;;;;;;;5042915;28;20207;-71
2023/12/11 02:33:49;;;;;;;9.80;4.07;;;;;;;;;;5042962;28;20195;-73
2023/12/11 02:36:17;;;;;;;0.93;0.90;;;;;;;;;;5046370;28;20292;-71
2023/12/11 02:38:44;;;;;;;0.87;0.87;;;;;;;;;;5046212;28;20207;-73
2023/12/11 02:41:14;;;;;;;0.77;0.77;;;;;;;;;;5042863;28;20555;-71
2023/12/11 02:43:42;;;;;;;0.70;0.70;;;;;;;;;;5043569;28;20215;-70
2023/12/11 02:46:12;;;;;;;0.70;0.70;;;;;;;;;;5022363;28;20267;-70
2023/12/11 02:48:39;;;;;;;0.60;0.60;;;;;;;;;;5035613;28;20322;-73
2023/12/11 02:51:09;;;;;;;0.70;0.70;;;;;;;;;;5045841;28;20304;-73
2023/12/11 02:53:37;;;;;;;0.70;0.70;;;;;;;;;;5045317;28;20197;-73
2023/12/11 02:56:07;;;;;;;0.70;0.70;;;;;;;;;;5028234;28;20209;-74
2023/12/11 02:58:38;;;;;;;1.00;1.00;;;;;;;;;;5052518;28;20212;-73
2023/12/11 03:01:05;;;;;;;1.10;1.10;;;;;;;;;;5049013;28;20222;-73
2023/12/11 03:03:35;;;;;;;13.43;12.43;;;;;;;;;;5044803;28;20288;-72
2023/12/11 03:06:06;;;;;;;2.70;2.53;;;;;;;;;;5046249;28;20260;-74
2023/12/11 03:08:33;;;;;;;1.37;0.90;;;;;;;;;;5050885;28;20217;-74
2023/12/11 03:11:00;;;;;;;1.13;1.13;;;;;;;;;;5045306;28;20222;-72
2023/12/11 03:13:33;;;;;;;1.30;1.30;;;;;;;;;;5032811;28;20288;-71
2023/12/11 03:16:04;;;;;;;0.60;0.60;;;;;;;;;;5044851;28;20618;-71
2023/12/11 03:18:33;;;;;;;0.60;0.60;;;;;;;;;;5043969;28;20592;-73
2023/12/11 03:21:01;;;;;;;1.90;0.70;;;;;;;;;;5045162;28;20207;-71
2023/12/11 03:23:28;;;;;;;0.70;0.70;;;;;;;;;;5043176;28;20263;-72
2023/12/11 03:25:55;;;;;;;0.60;0.60;;;;;;;;;;5041347;28;20218;-72
2023/12/11 03:28:24;;;;;;;0.80;0.70;;;;;;;;;;5049295;28;20794;-70
2023/12/11 03:30:54;;;;;;;0.70;0.70;;;;;;;;;;5024185;28;20230;-73
2023/12/11 03:33:24;;;;;;;0.70;0.70;;;;;;;;;;5045035;28;20286;-72
2023/12/11 03:35:51;;;;;;;0.60;0.60;;;;;;;;;;5042034;28;20221;-72
2023/12/11 03:38:18;;;;;;;1.20;1.10;;;;;;;;;;5047290;28;20225;-73
2023/12/11 03:40:49;;;;;;;1.10;1.00;;;;;;;;;;5038750;28;20596;-72
2023/12/11 03:43:18;;;;;;;1.10;1.10;;;;;;;;;;5053347;28;20730;-72
2023/12/11 03:45:46;;;;;;;1.10;1.10;;;;;;;;;;5042521;28;20206;-73
2023/12/11 03:48:14;;;;;;;1.00;1.00;;;;;;;;;;5044433;28;20268;-71
2023/12/11 03:50:41;;;;;;;0.90;0.90;;;;;;;;;;5040709;28;20237;-73
2023/12/11 03:53:11;;;;;;;0.80;0.80;;;;;;;;;;5043017;28;20206;-71
2023/12/11 03:55:42;;;;;;;2.17;0.80;;;;;;;;;;5047092;28;20198;-72
2023/12/11 03:58:09;;;;;;;0.77;0.77;;;;;;;;;;5046980;28;20719;-71
2023/12/11 04:00:40;;;;;;;0.80;0.80;;;;;;;;;;5048634;28;20283;-70
2023/12/11 04:03:10;;;;;;;0.80;0.80;;;;;;;;;;5051469;28;20206;-70
2023/12/11 04:05:37;;;;;;;0.70;0.70;;;;;;;;;;5043086;28;20247;-69
2023/12/11 04:08:07;;;;;;;0.80;0.70;;;;;;;;;;5035538;28;20253;-68
2023/12/11 04:10:35;;;;;;;0.70;0.70;;;;;;;;;;5039908;28;20260;-70
2023/12/11 04:13:07;;;;;;;3.30;0.80;;;;;;;;;;5043000;28;20201;-70
2023/12/11 04:15:37;;;;;;;0.70;0.70;;;;;;;;;;5039023;28;20207;-69
2023/12/11 04:18:07;;;;;;;0.77;0.77;;;;;;;;;;5049898;28;20214;-69
2023/12/11 04:20:34;;;;;;;0.70;0.70;;;;;;;;;;5044948;28;20634;-68
2023/12/11 04:23:01;;;;;;;0.70;0.70;;;;;;;;;;5047272;28;20260;-67
2023/12/11 04:25:32;;;;;;;0.70;0.70;;;;;;;;;;5042509;28;20301;-71
2023/12/11 04:28:11;;;;;;;0.70;0.70;;;;;;;;;;5041684;28;20236;-68
2023/12/11 04:30:41;;;;;;;0.90;0.90;;;;;;;;;;5042533;28;20305;-70
2023/12/11 04:33:08;;;;;;;0.90;0.90;;;;;;;;;;5024986;28;20624;-68
2023/12/11 04:35:35;;;;;;;1.27;0.80;;;;;;;;;;5044816;28;20212;-69
2023/12/11 04:38:05;;;;;;;9.47;6.90;;;;;;;;;;5046389;28;20256;-69
2023/12/11 04:40:32;;;;;;;0.90;0.90;;;;;;;;;;5038841;28;20227;-69
2023/12/11 04:43:02;;;;;;;0.77;0.77;;;;;;;;;;5031925;28;20201;-70
2023/12/11 04:45:33;;;;;;;1.17;0.80;;;;;;;;;;5038140;28;20206;-69
2023/12/11 04:48:03;;;;;;;3.17;2.30;;;;;;;;;;5043893;28;20209;-68
2023/12/11 04:50:34;;;;;;;6.63;6.13;;;;;;;;;;5020825;28;20262;-69
2023/12/11 04:53:02;;;;;;;10.97;7.67;;;;;;;;;;5047975;28;21585;-69
2023/12/11 04:55:33;;;;;;;12.57;9.80;;;;;;;;;;5042809;28;20204;-70
2023/12/11 04:58:00;;;;;;;10.40;9.50;;;;;;;;;;5022914;28;20276;-69
2023/12/11 05:00:28;;;;;;;14.93;13.63;;;;;;;;;;5042511;28;20229;-70
2023/12/11 05:02:58;;;;;;;6.80;6.20;;;;;;;;;;5042137;28;20210;-67
2023/12/11 05:05:26;;;;;;;3.23;3.00;;;;;;;;;;5029911;28;20217;-70
2023/12/11 05:07:53;;;;;;;3.20;3.00;;;;;;;;;;5033484;28;20858;-69
2023/12/11 05:10:20;;;;;;;3.77;3.47;;;;;;;;;;5037610;28;20285;-70
2023/12/11 05:12:48;;;;;;;6.03;5.43;;;;;;;;;;5029131;28;20203;-67
2023/12/11 05:15:18;;;;;;;36.73;16.67;;;;;;;;;;5035679;28;20206;-68
2023/12/11 05:17:52;;;;;;;34.07;17.23;;;;;;;;;;5031024;28;20636;-69
2023/12/11 05:20:19;;;;;;;9.10;6.40;;;;;;;;;;5019032;28;20852;-70
2023/12/11 05:22:46;;;;;;;6.13;5.50;;;;;;;;;;5036883;28;20206;-69
2023/12/11 05:25:15;;;;;;;5.20;4.70;;;;;;;;;;5036993;28;20679;-70
2023/12/11 05:27:44;;;;;;;6.53;6.03;;;;;;;;;;5044083;28;20212;-69
2023/12/11 05:30:11;;;;;;;7.90;7.20;;;;;;;;;;5045305;28;20262;-69
2023/12/11 05:32:39;;;;;;;8.20;7.40;;;;;;;;;;5048886;28;20211;-70
2023/12/11 05:35:07;;;;;;;9.47;7.40;;;;;;;;;;5040849;28;20206;-68
2023/12/11 05:37:34;;;;;;;11.10;8.70;;;;;;;;;;5036028;28;20287;-70
2023/12/11 05:40:01;;;;;;;5.80;5.20;;;;;;;;;;5018788;28;20342;-69
2023/12/11 05:42:49;;;;;;;7.60;6.80;;;;;;;;;;5049386;28;20264;-69
2023/12/11 05:45:16;;;;;;;6.80;6.10;;;;;;;;;;5044486;28;20321;-68
2023/12/11 05:47:43;;;;;;;5.00;4.50;;;;;;;;;;5047267;28;20202;-69
2023/12/11 05:50:12;;;;;;;6.27;4.90;;;;;;;;;;5027939;28;20234;-69
2023/12/11 05:52:39;;;;;;;6.20;5.60;;;;;;;;;;5028057;28;20221;-69
2023/12/11 05:55:07;;;;;;;6.17;5.50;;;;;;;;;;5026354;28;20281;-69
2023/12/11 05:57:34;;;;;;;6.17;5.07;;;;;;;;;;5046209;28;20210;-67
2023/12/11 06:00:03;;;;;;;5.37;4.87;;;;;;;;;;5040491;28;20222;-68
2023/12/11 06:02:32;;;;;;;5.13;4.70;;;;;;;;;;5034741;28;20201;-70
2023/12/11 06:05:00;;;;;;;6.10;5.53;;;;;;;;;;5034263;28;20207;-70
2023/12/11 06:07:27;;;;;;;5.50;4.70;;;;;;;;;;5042700;28;20678;-70
2023/12/11 06:09:55;;;;;;;4.47;4.07;;;;;;;;;;5021589;28;20222;-68
2023/12/11 06:12:22;;;;;;;5.43;4.90;;;;;;;;;;5021244;28;20219;-70
2023/12/11 06:14:50;;;;;;;5.23;4.30;;;;;;;;;;5024313;28;20207;-67
2023/12/11 06:17:17;;;;;;;5.20;4.27;;;;;;;;;;5035054;28;20206;-69
2023/12/11 06:19:45;;;;;;;6.53;5.40;;;;;;;;;;5038668;28;20268;-69
2023/12/11 06:22:12;;;;;;;6.17;5.60;;;;;;;;;;5035534;28;20294;-69
2023/12/11 06:24:40;;;;;;;9.27;7.03;;;;;;;;;;5032424;28;20651;-69
2023/12/11 06:27:08;;;;;;;5.47;4.97;;;;;;;;;;5042475;28;20238;-69
2023/12/11 06:29:36;;;;;;;5.47;4.97;;;;;;;;;;5032370;28;20317;-69
2023/12/11 06:32:04;;;;;;;10.83;7.63;;;;;;;;;;5026796;28;20226;-69
2023/12/11 06:34:37;;;;;;;9.30;5.83;;;;;;;;;;5043945;28;20579;-69
2023/12/11 06:37:05;;;;;;;7.03;4.53;;;;;;;;;;5038339;28;20206;-70
2023/12/11 06:39:32;;;;;;;3.83;2.80;;;;;;;;;;5038021;28;20806;-69
2023/12/11 06:42:00;;;;;;;4.63;4.17;;;;;;;;;;5032664;28;20567;-70
2023/12/11 06:44:27;;;;;;;4.33;3.70;;;;;;;;;;5038675;28;20217;-69
2023/12/11 06:46:55;;;;;;;2.23;2.10;;;;;;;;;;5021605;28;20306;-66
2023/12/11 06:49:25;;;;;;;2.10;2.00;;;;;;;;;;5036413;28;20655;-69
2023/12/11 06:51:55;;;;;;;2.50;2.30;;;;;;;;;;5040657;28;20227;-69
2023/12/11 06:54:23;;;;;;;2.10;2.00;;;;;;;;;;5021820;28;20659;-69
2023/12/11 06:56:50;;;;;;;2.33;2.00;;;;;;;;;;5028477;28;20208;-69
2023/12/11 06:59:17;;;;;;;2.03;1.40;;;;;;;;;;5035135;28;20303;-69
2023/12/11 07:01:44;;;;;;;2.30;1.97;;;;;;;;;;5047600;28;20255;-69
2023/12/11 07:04:12;;;;;;;1.70;1.60;;;;;;;;;;5035489;28;20199;-67
2023/12/11 07:06:40;;;;;;;1.90;1.80;;;;;;;;;;5031363;28;20202;-69
2023/12/11 07:09:08;;;;;;;4.77;2.80;;;;;;;;;;5033346;28;20226;-69
2023/12/11 07:11:36;;;;;;;2.30;2.03;;;;;;;;;;5012814;28;20744;-69
2023/12/11 07:14:03;;;;;;;2.97;1.73;;;;;;;;;;5026927;28;20202;-70
2023/12/11 07:16:34;;;;;;;2.27;2.07;;;;;;;;;;5024538;28;20225;-70
2023/12/11 07:19:03;;;;;;;2.50;2.30;;;;;;;;;;5029789;28;20218;-71
2023/12/11 07:21:30;;;;;;;3.00;2.80;;;;;;;;;;5039304;28;20569;-68
2023/12/11 07:23:58;;;;;;;5.17;3.50;;;;;;;;;;5038815;28;23689;-70
2023/12/11 07:26:25;;;;;;;2.70;2.50;;;;;;;;;;5017013;28;20671;-69
2023/12/11 07:28:52;;;;;;;3.27;2.80;;;;;;;;;;5016316;28;20230;-69
2023/12/11 07:31:20;;;;;;;3.10;2.80;;;;;;;;;;5034972;28;20476;-68
2023/12/11 07:33:51;;;;;;;3.10;2.67;;;;;;;;;;5035147;28;20209;-69
2023/12/11 07:36:21;;;;;;;2.60;2.40;;;;;;;;;;5037914;28;20205;-70
2023/12/11 07:38:50;;;;;;;2.53;2.40;;;;;;;;;;5042370;28;20256;-70
2023/12/11 07:41:21;;;;;;;2.37;2.27;;;;;;;;;;5035872;28;20203;-70
2023/12/11 07:43:49;;;;;;;2.67;2.00;;;;;;;;;;5040266;28;20298;-70
2023/12/11 07:46:20;;;;;;;2.50;1.80;;;;;;;;;;5029885;28;20697;-69
2023/12/11 07:48:47;;;;;;;2.53;2.03;;;;;;;;;;5019040;28;20656;-69
2023/12/11 07:51:20;;;;;;;5.50;5.10;;;;;;;;;;5016714;28;20230;-69
2023/12/11 07:53:48;;;;;;;4.30;4.00;;;;;;;;;;5031626;28;20205;-67
2023/12/11 07:56:22;;;;;;;1.80;1.70;;;;;;;;;;5028847;28;20209;-70
2023/12/11 07:58:53;;;;;;;1.60;1.50;;;;;;;;;;5034866;28;20209;-69
2023/12/11 08:01:20;;;;;;;1.50;1.40;;;;;;;;;;5038177;28;20233;-70
2023/12/11 08:03:48;;;;;;;1.53;1.10;;;;;;;;;;5031037;28;20213;-70
2023/12/11 08:06:16;;;;;;;1.13;1.10;;;;;;;;;;5019649;28;20214;-70
2023/12/11 08:08:43;;;;;;;1.10;1.10;;;;;;;;;;5020695;28;20210;-68
2023/12/11 08:11:21;;;;;;;1.57;1.43;;;;;;;;;;5023850;28;20753;-70
2023/12/11 08:13:49;;;;;;;1.97;1.30;;;;;;;;;;5024905;28;20253;-68
2023/12/11 08:16:16;;;;;;;2.40;1.40;;;;;;;;;;5025710;28;20222;-69
2023/12/11 08:18:44;;;;;;;1.17;1.17;;;;;;;;;;5034942;28;20204;-69
2023/12/11 08:21:12;;;;;;;0.90;0.90;;;;;;;;;;5036567;28;20289;-70
2023/12/11 08:23:40;;;;;;;1.60;1.00;;;;;;;;;;5040076;28;20197;-68
2023/12/11 08:26:09;;;;;;;0.93;0.93;;;;;;;;;;5044520;28;20242;-70
2023/12/11 08:28:39;;;;;;;1.00;1.00;;;;;;;;;;5041268;28;20687;-69
2023/12/11 08:31:07;;;;;;;1.00;1.00;;;;;;;;;;5043287;28;20852;-67
2023/12/11 08:33:34;;;;;;;0.90;0.90;;;;;;;;;;5022372;28;20203;-68
2023/12/11 08:36:04;;;;;;;0.83;0.83;;;;;;;;;;5049506;28;20201;-69
2023/12/11 08:38:35;;;;;;;0.87;0.87;;;;;;;;;;5030083;28;20199;-69
2023/12/11 08:41:02;;;;;;;0.80;0.80;;;;;;;;;;5040683;28;20240;-69
2023/12/11 08:43:30;;;;;;;0.77;0.77;;;;;;;;;;5044389;28;20218;-71
2023/12/11 08:45:59;;;;;;;0.83;0.83;;;;;;;;;;5038373;28;20234;-67
2023/12/11 08:48:30;;;;;;;0.80;0.80;;;;;;;;;;5005768;28;20709;-70
2023/12/11 08:51:00;;;;;;;0.80;0.80;;;;;;;;;;5032500;28;20258;-67
2023/12/11 08:53:30;;;;;;;1.03;0.70;;;;;;;;;;5042685;28;20209;-70
2023/12/11 08:55:58;;;;;;;2.03;0.97;;;;;;;;;;5042262;28;20238;-69
2023/12/11 08:58:27;;;;;;;0.60;0.60;;;;;;;;;;5032943;28;20632;-70
2023/12/11 09:00:55;;;;;;;0.60;0.60;;;;;;;;;;5037746;28;20226;-69
2023/12/11 09:03:22;;;;;;;0.80;0.80;;;;;;;;;;5042185;28;20323;-71
2023/12/11 09:05:50;;;;;;;0.80;0.80;;;;;;;;;;5040657;28;20670;-70
2023/12/11 09:08:23;;;;;;;1.13;0.80;;;;;;;;;;5036099;28;20206;-68
2023/12/11 09:10:51;;;;;;;0.60;0.60;;;;;;;;;;5033211;28;20229;-70
2023/12/11 09:13:22;;;;;;;0.67;0.67;;;;;;;;;;5037251;28;20217;-69
2023/12/11 09:15:56;;;;;;;1.00;0.70;;;;;;;;;;5039160;28;20217;-70
2023/12/11 09:18:24;;;;;;;2.80;1.50;;;;;;;;;;5038490;28;20202;-70
2023/12/11 09:20:52;;;;;;;0.97;0.80;;;;;;;;;;5044161;28;20229;-70
2023/12/11 09:23:22;;;;;;;1.03;1.03;;;;;;;;;;5043334;28;20208;-68
2023/12/11 09:25:49;;;;;;;0.83;0.80;;;;;;;;;;5044644;28;20207;-69
2023/12/11 09:28:17;;;;;;;0.70;0.70;;;;;;;;;;5040219;28;20674;-70
2023/12/11 09:30:46;;;;;;;1.50;0.70;;;;;;;;;;5041547;28;20279;-68
2023/12/11 09:33:13;;;;;;;0.90;0.90;;;;;;;;;;5049919;28;20208;-70
2023/12/11 09:35:41;;;;;;;1.10;1.10;;;;;;;;;;5025331;28;20205;-70
2023/12/11 09:38:10;;;;;;;1.20;1.10;;;;;;;;;;5042567;28;20256;-70
2023/12/11 09:40:37;;;;;;;1.23;0.87;;;;;;;;;;5037398;28;20264;-69
2023/12/11 09:43:05;;;;;;;0.83;0.83;;;;;;;;;;5044231;28;20235;-69
2023/12/11 09:45:33;;;;;;;2.37;1.80;;;;;;;;;;5023661;28;20213;-69
2023/12/11 09:48:00;;;;;;;0.77;0.77;;;;;;;;;;5015965;28;20202;-70
2023/12/11 09:50:40;;;;;;;1.27;1.10;;;;;;;;;;5024751;28;20232;-70
2023/12/11 09:53:08;;;;;;;0.87;0.80;;;;;;;;;;5040168;28;20648;-70
2023/12/11 09:55:36;;;;;;;0.80;0.80;;;;;;;;;;5039537;28;20217;-69
2023/12/11 09:58:04;;;;;;;0.77;0.77;;;;;;;;;;5041881;28;20193;-70
2023/12/11 10:00:32;;;;;;;0.70;0.70;;;;;;;;;;5047236;28;20218;-69
2023/12/11 10:03:01;;;;;;;1.30;1.20;;;;;;;;;;5036535;28;20205;-70
2023/12/11 10:05:29;;;;;;;1.10;1.10;;;;;;;;;;5039919;28;20476;-68
2023/12/11 10:07:56;;;;;;;0.83;0.80;;;;;;;;;;5041108;28;20210;-68
2023/12/11 10:10:25;;;;;;;0.80;0.80;;;;;;;;;;5034758;28;20218;-70
2023/12/11 10:12:56;;;;;;;0.80;0.80;;;;;;;;;;5037151;28;20327;-69
2023/12/11 10:15:25;;;;;;;1.30;1.23;;;;;;;;;;5021840;28;20199;-68
2023/12/11 10:18:02;;;;;;;0.60;0.60;;;;;;;;;;5020125;28;20202;-68
2023/12/11 10:20:30;;;;;;;0.90;0.90;;;;;;;;;;5033470;28;20716;-67
2023/12/11 10:22:58;;;;;;;2.10;1.43;;;;;;;;;;5042543;28;20210;-69
2023/12/11 10:25:31;;;;;;;1.20;1.00;;;;;;;;;;5039222;28;20221;-70
2023/12/11 10:28:05;;;;;;;1.00;0.80;;;;;;;;;;5041252;28;20210;-70
2023/12/11 10:30:33;;;;;;;0.60;0.60;;;;;;;;;;5043258;28;20229;-69
2023/12/11 10:33:07;;;;;;;1.27;1.27;;;;;;;;;;5040380;28;20604;-70
2023/12/11 10:35:34;;;;;;;1.43;1.33;;;;;;;;;;5042466;28;20716;-70
2023/12/11 10:38:02;;;;;;;3.83;2.70;;;;;;;;;;5041168;28;20195;-69
2023/12/11 10:40:39;;;;;;;1.17;1.10;;;;;;;;;;5037970;28;20611;-69
2023/12/11 10:43:06;;;;;;;0.63;0.63;;;;;;;;;;5041442;28;20214;-70
2023/12/11 10:45:34;;;;;;;1.40;1.30;;;;;;;;;;5036281;28;20306;-70
2023/12/11 10:48:03;;;;;;;2.43;2.20;;;;;;;;;;5038349;28;20220;-70
2023/12/11 10:50:31;;;;;;;2.60;2.30;;;;;;;;;;5035937;28;20269;-69
2023/12/11 10:53:00;;;;;;;2.97;2.77;;;;;;;;;;5032994;28;20228;-70
2023/12/11 10:55:29;;;;;;;2.00;1.50;;;;;;;;;;5039196;28;20644;-70
2023/12/11 10:58:03;;;;;;;1.20;1.10;;;;;;;;;;5045799;28;20206;-69
2023/12/11 11:00:32;;;;;;;0.80;0.80;;;;;;;;;;5021694;28;20589;-69
2023/12/11 11:03:00;;;;;;;0.67;0.60;;;;;;;;;;5034789;28;20213;-68
2023/12/11 11:05:29;;;;;;;0.73;0.73;;;;;;;;;;5040710;28;20203;-70
2023/12/11 11:07:59;;;;;;;1.20;0.80;;;;;;;;;;5043178;28;20591;-70
2023/12/11 11:10:32;;;;;;;0.70;0.70;;;;;;;;;;5034916;28;20373;-70
2023/12/11 11:13:09;;;;;;;0.70;0.70;;;;;;;;;;5036954;28;20309;-69
2023/12/11 11:15:37;;;;;;;1.07;0.70;;;;;;;;;;5038409;28;20306;-70
2023/12/11 11:18:06;;;;;;;0.60;0.60;;;;;;;;;;5016080;28;20202;-67
2023/12/11 11:20:34;;;;;;;0.70;0.70;;;;;;;;;;5038526;28;20306;-70
2023/12/11 11:23:14;;;;;;;0.70;0.70;;;;;;;;;;5038007;28;20209;-70
2023/12/11 11:25:45;;;;;;;0.67;0.63;;;;;;;;;;5037450;28;20218;-70
2023/12/11 11:28:31;;;;;;;0.43;0.43;;;;;;;;;;5030457;28;20225;-67
2023/12/11 11:30:58;;;;;;;0.63;0.63;;;;;;;;;;5033504;28;20289;-70
2023/12/11 11:33:42;;;;;;;0.70;0.70;;;;;;;;;;5031535;28;20221;-70
2023/12/11 11:36:10;;;;;;;0.93;0.60;;;;;;;;;;5035822;28;20211;-70
2023/12/11 11:38:57;;;;;;;1.93;0.60;;;;;;;;;;5035744;28;20256;-69
2023/12/11 11:41:29;;;;;;;0.83;0.83;;;;;;;;;;5035401;28;20207;-69
2023/12/11 11:43:59;;;;;;;0.80;0.80;;;;;;;;;;5019687;28;20206;-69
2023/12/11 11:46:46;;;;;;;0.60;0.60;;;;;;;;;;5029378;28;20214;-70
2023/12/11 11:49:25;;;;;;;1.10;1.00;;;;;;;;;;5026476;28;20792;-69
2023/12/11 11:51:53;;;;;;;2.30;1.53;;;;;;;;;;5035829;28;20218;-69
2023/12/11 11:54:24;;;;;;;1.83;1.37;;;;;;;;;;5019869;28;20216;-68
2023/12/11 11:56:52;;;;;;;1.60;1.50;;;;;;;;;;5035807;28;20222;-69
2023/12/11 11:59:20;;;;;;;3.83;2.60;;;;;;;;;;5041458;28;20765;-68
2023/12/11 12:01:58;;;;;;;8.43;4.87;;;;;;;;;;5023588;28;20207;-69
2023/12/11 12:04:26;;;;;;;7.23;4.53;;;;;;;;;;5041282;28;20650;-70
2023/12/11 12:06:56;;;;;;;3.20;2.10;;;;;;;;;;5050925;28;20289;-69
2023/12/11 12:09:24;;;;;;;5.13;3.80;;;;;;;;;;5045467;28;20777;-70
2023/12/11 12:11:55;;;;;;;11.33;7.37;;;;;;;;;;5038041;28;20229;-70
2023/12/11 12:14:22;;;;;;;5.70;2.73;;;;;;;;;;5038594;28;20221;-69
2023/12/11 12:16:50;;;;;;;7.93;6.30;;;;;;;;;;5039111;28;20199;-69
2023/12/11 12:19:31;;;;;;;3.00;2.70;;;;;;;;;;5029024;28;20316;-69
2023/12/11 12:22:02;;;;;;;3.80;2.73;;;;;;;;;;5039147;28;20654;-70
2023/12/11 12:24:31;;;;;;;3.13;1.67;;;;;;;;;;5020830;28;20220;-70
2023/12/11 12:27:04;;;;;;;10.13;8.57;;;;;;;;;;5042229;28;20862;-70
2023/12/11 12:29:33;;;;;;;1.23;1.00;;;;;;;;;;5041870;28;20287;-67
2023/12/11 12:32:00;;;;;;;1.27;0.87;;;;;;;;;;5020837;28;20234;-70
2023/12/11 12:34:30;;;;;;;1.63;1.23;;;;;;;;;;5012817;28;20206;-69
2023/12/11 12:37:01;;;;;;;1.43;1.33;;;;;;;;;;5042318;28;20728;-68
2023/12/11 12:39:28;;;;;;;0.90;0.90;;;;;;;;;;5033052;28;20281;-70
2023/12/11 12:41:57;;;;;;;1.17;0.97;;;;;;;;;;5029602;28;20214;-69
2023/12/11 12:44:24;;;;;;;1.83;1.60;;;;;;;;;;5039523;28;20574;-69
2023/12/11 12:46:51;;;;;;;1.23;1.00;;;;;;;;;;5043081;28;20563;-68
2023/12/11 12:49:21;;;;;;;2.47;1.00;;;;;;;;;;5051140;28;20442;-70
2023/12/11 12:51:54;;;;;;;1.17;0.90;;;;;;;;;;5043226;28;20210;-69
2023/12/11 12:54:22;;;;;;;3.63;1.60;;;;;;;;;;5045802;28;20265;-67
2023/12/11 12:56:57;;;;;;;1.10;1.10;;;;;;;;;;5023465;28;20208;-69
2023/12/11 12:59:26;;;;;;;2.07;1.70;;;;;;;;;;5044324;28;20237;-69
2023/12/11 13:01:53;;;;;;;3.10;1.63;;;;;;;;;;5043202;28;20199;-69
2023/12/11 13:04:22;;;;;;;4.77;3.20;;;;;;;;;;5044653;28;20256;-70
2023/12/11 13:06:50;;;;;;;26.77;8.87;;;;;;;;;;5045394;28;20278;-70
2023/12/11 13:09:31;;;;;;;2.90;1.80;;;;;;;;;;5046253;28;20226;-70
2023/12/11 13:11:59;;;;;;;3.70;1.57;;;;;;;;;;5046010;28;20669;-67
2023/12/11 13:14:27;;;;;;;0.90;0.90;;;;;;;;;;5029797;28;20202;-68
2023/12/11 13:16:55;;;;;;;1.57;1.00;;;;;;;;;;5031661;28;20635;-70
2023/12/11 13:19:23;;;;;;;1.60;0.90;;;;;;;;;;5049040;28;20598;-69
2023/12/11 13:21:52;;;;;;;8.90;6.13;;;;;;;;;;5046132;28;20654;-70
2023/12/11 13:24:21;;;;;;;2.50;1.60;;;;;;;;;;5047748;28;20219;-69
2023/12/11 13:26:49;;;;;;;1.73;1.50;;;;;;;;;;5043483;28;20261;-69
2023/12/11 13:29:16;;;;;;;1.90;1.43;;;;;;;;;;5046810;28;20237;-68
2023/12/11 13:31:43;;;;;;;1.53;1.10;;;;;;;;;;5029116;28;20653;-69
2023/12/11 13:34:10;;;;;;;3.00;1.30;;;;;;;;;;5044763;28;20230;-69
2023/12/11 13:36:38;;;;;;;4.00;1.20;;;;;;;;;;5041618;28;20618;-69
2023/12/11 13:39:07;;;;;;;1.87;1.27;;;;;;;;;;5028077;28;20260;-70
2023/12/11 13:41:38;;;;;;;4.33;2.43;;;;;;;;;;5043320;28;20218;-70
2023/12/11 13:44:06;;;;;;;1.20;0.80;;;;;;;;;;5047246;28;20210;-70
2023/12/11 13:46:33;;;;;;;1.07;0.97;;;;;;;;;;5043399;28;20212;-69
2023/12/11 13:49:00;;;;;;;4.37;1.73;;;;;;;;;;5047870;28;20226;-70
2023/12/11 13:51:28;;;;;;;1.43;1.10;;;;;;;;;;5046326;28;20666;-69
2023/12/11 13:53:55;;;;;;;1.93;1.00;;;;;;;;;;5032080;28;20317;-68
2023/12/11 13:56:22;;;;;;;2.90;1.00;;;;;;;;;;5030170;28;20215;-70
2023/12/11 13:58:50;;;;;;;1.60;1.50;;;;;;;;;;5039010;28;20203;-70
2023/12/11 14:01:17;;;;;;;2.57;1.10;;;;;;;;;;5044024;28;20202;-69
2023/12/11 14:03:45;;;;;;;1.23;0.90;;;;;;;;;;5043430;28;20198;-70
2023/12/11 14:06:13;;;;;;;1.93;0.97;;;;;;;;;;5040793;28;20305;-70
2023/12/11 14:08:41;;;;;;;3.37;1.73;;;;;;;;;;5041218;28;20238;-70
2023/12/11 14:11:08;;;;;;;4.17;2.90;;;;;;;;;;5046534;28;20210;-68
2023/12/11 14:13:36;;;;;;;1.70;1.20;;;;;;;;;;5049787;28;20225;-70
2023/12/11 14:16:03;;;;;;;3.13;1.90;;;;;;;;;;5046822;28;20580;-69
2023/12/11 14:18:33;;;;;;;2.57;2.10;;;;;;;;;;5043215;28;20690;-70
2023/12/11 14:21:01;;;;;;;5.20;2.53;;;;;;;;;;5048290;28;20203;-69
2023/12/11 14:23:29;;;;;;;3.53;1.10;;;;;;;;;;5048694;28;20268;-66
2023/12/11 14:25:56;;;;;;;4.23;1.47;;;;;;;;;;5045613;28;20222;-68
2023/12/11 14:28:27;;;;;;;1.43;1.30;;;;;;;;;;5044470;28;20705;-70
2023/12/11 14:30:54;;;;;;;3.13;1.30;;;;;;;;;;5045731;28;20237;-70
2023/12/11 14:33:22;;;;;;;1.00;0.90;;;;;;;;;;5032127;28;20617;-70
2023/12/11 14:35:49;;;;;;;2.63;1.20;;;;;;;;;;5043263;28;20214;-70
2023/12/11 14:38:16;;;;;;;1.97;1.07;;;;;;;;;;5045062;28;20206;-68
2023/12/11 14:40:44;;;;;;;2.63;1.33;;;;;;;;;;5044944;28;20235;-68
2023/12/11 14:43:12;;;;;;;3.83;1.23;;;;;;;;;;5042702;28;20198;-69
2023/12/11 14:45:39;;;;;;;1.90;0.90;;;;;;;;;;5043802;28;20738;-69
2023/12/11 14:48:07;;;;;;;1.77;1.10;;;;;;;;;;5047382;28;20256;-67
2023/12/11 14:50:35;;;;;;;2.37;1.30;;;;;;;;;;5040594;28;20686;-69
2023/12/11 14:53:02;;;;;;;2.47;1.17;;;;;;;;;;5038586;28;20858;-70
2023/12/11 14:55:30;;;;;;;2.90;1.17;;;;;;;;;;5020493;28;20245;-70